createdAt,value
2023-02-09T00:02:44.044Z,89.43
2023-02-09T00:07:45.670Z,89.23
2023-02-09T00:13:06.523Z,88.92
2023-02-09T00:18:08.120Z,88.77
2023-02-09T00:23:09.716Z,88.59
2023-02-09T00:28:11.371Z,88.90
2023-02-09T00:33:13.119Z,88.37
2023-02-09T00:38:14.897Z,88.45
2023-02-09T00:43:16.508Z,88.55
2023-02-09T00:48:18.151Z,88.65
2023-02-09T00:53:21.368Z,88.22
2023-02-09T00:58:23.400Z,88.21
2023-02-09T01:03:25.021Z,88.64
2023-02-09T01:08:28.586Z,88.67
2023-02-09T01:13:30.249Z,88.17
2023-02-09T01:18:33.431Z,88.88
2023-02-09T01:23:36.904Z,88.66
2023-02-09T01:28:38.879Z,88.29
2023-02-09T01:33:40.502Z,88.37
2023-02-09T01:38:42.156Z,88.26
2023-02-09T01:43:52.268Z,87.74
2023-02-09T01:49:01.422Z,87.67
2023-02-09T01:54:14.983Z,87.84
2023-02-09T01:59:17.873Z,87.93
2023-02-09T02:04:21.324Z,87.43
2023-02-09T02:09:24.024Z,87.35
2023-02-09T02:14:40.046Z,87.92
2023-02-09T02:20:03.577Z,87.64
2023-02-09T02:25:36.904Z,87.72
2023-02-09T02:30:57.987Z,87.58
2023-02-09T02:36:14.874Z,87.41
2023-02-09T02:41:57.088Z,87.51
2023-02-09T02:47:03.348Z,87.72
2023-02-09T02:52:09.398Z,87.83
2023-02-09T02:57:18.924Z,87.79
2023-02-09T03:02:26.913Z,88.11
2023-02-09T03:07:28.562Z,88.19
2023-02-09T03:12:39.239Z,87.82
2023-02-09T03:17:56.474Z,87.97
2023-02-09T03:23:02.540Z,87.48
2023-02-09T03:28:09.717Z,88.17
2023-02-09T03:33:26.211Z,88.17
2023-02-09T03:38:28.613Z,88.68
2023-02-09T03:44:08.595Z,88.94
2023-02-09T03:49:11.482Z,89.01
2023-02-09T03:54:13.144Z,88.89
2023-02-09T03:59:14.769Z,89.13
2023-02-09T04:04:16.363Z,89.08
2023-02-09T04:09:18.031Z,89.74
2023-02-09T04:14:19.882Z,89.79
2023-02-09T04:19:21.534Z,90.20
2023-02-09T04:24:23.212Z,90.27
2023-02-09T04:29:24.989Z,90.36
2023-02-09T04:34:26.795Z,90.38
2023-02-09T04:39:28.483Z,90.33
2023-02-09T04:44:30.131Z,90.29
2023-02-09T04:49:31.766Z,90.09
2023-02-09T04:54:33.712Z,90.05
2023-02-09T04:59:36.460Z,90.24
2023-02-09T05:04:38.278Z,90.17
2023-02-09T05:09:39.932Z,90.15
2023-02-09T05:14:41.538Z,90.08
2023-02-09T05:19:43.138Z,90.15
2023-02-09T05:24:45.021Z,89.89
2023-02-09T05:29:46.734Z,89.32
2023-02-09T05:34:48.388Z,89.53
2023-02-09T05:39:51.128Z,89.74
2023-02-09T05:44:53.076Z,89.65
2023-02-09T05:49:54.681Z,89.42
2023-02-09T05:54:56.509Z,89.95
2023-02-09T05:59:58.157Z,89.92
2023-02-09T06:04:59.798Z,89.63
2023-02-09T06:10:01.610Z,89.53
2023-02-09T06:15:03.668Z,89.26
2023-02-09T06:20:06.041Z,89.44
2023-02-09T06:25:08.105Z,89.41
2023-02-09T06:30:10.492Z,89.61
2023-02-09T06:35:12.386Z,89.48
2023-02-09T06:40:14.285Z,89.31
2023-02-09T06:45:17.509Z,89.31
2023-02-09T06:50:19.669Z,89.27
2023-02-09T06:55:21.636Z,89.34
2023-02-09T07:00:23.992Z,89.03
2023-02-09T07:05:26.137Z,89.49
2023-02-09T07:10:27.945Z,89.89
2023-02-09T07:15:29.516Z,89.84
2023-02-09T07:20:31.131Z,89.65
2023-02-09T07:25:34.221Z,89.37
2023-02-09T07:30:40.973Z,89.60
2023-02-09T07:35:42.628Z,89.19
2023-02-09T07:40:46.592Z,88.90
2023-02-09T07:45:48.647Z,88.96
2023-02-09T07:50:51.342Z,88.92
2023-02-09T07:55:53.347Z,88.55
2023-02-09T08:00:54.977Z,88.52
2023-02-09T08:06:01.976Z,88.32
2023-02-09T08:11:05.484Z,87.60
2023-02-09T08:16:15.791Z,87.72
2023-02-09T08:21:18.670Z,87.53
2023-02-09T08:26:20.382Z,87.11
2023-02-09T08:31:22.562Z,86.67
2023-02-09T08:36:24.509Z,86.44
2023-02-09T08:41:26.141Z,86.19
2023-02-09T08:46:28.223Z,86.06
2023-02-09T08:51:29.953Z,84.97
2023-02-09T08:56:31.596Z,85.25
2023-02-09T09:01:33.306Z,84.66
2023-02-09T09:06:35.107Z,84.16
2023-02-09T09:11:36.952Z,83.19
2023-02-09T09:16:38.899Z,83.79
2023-02-09T09:21:40.532Z,83.11
2023-02-09T09:26:42.479Z,82.29
2023-02-09T09:31:44.115Z,81.56
2023-02-09T09:36:45.783Z,80.31
2023-02-09T09:41:50.957Z,80.04
2023-02-09T09:46:54.438Z,79.98
2023-02-09T09:52:03.173Z,79.53
2023-02-09T09:57:18.428Z,79.58
2023-02-09T10:02:31.960Z,79.10
2023-02-09T10:07:34.564Z,77.22
2023-02-09T10:12:45.465Z,76.58
2023-02-09T10:17:47.183Z,76.13
2023-02-09T10:22:52.013Z,77.10
2023-02-09T10:27:53.833Z,76.64
2023-02-09T10:32:59.856Z,75.84
2023-02-09T10:38:02.626Z,75.09
2023-02-09T10:43:07.077Z,73.40
2023-02-09T10:48:19.288Z,71.77
2023-02-09T10:53:24.074Z,70.63
2023-02-09T10:58:35.420Z,69.92
2023-02-09T11:03:45.971Z,71.90
2023-02-09T11:09:03.031Z,70.31
2023-02-09T11:14:12.537Z,68.72
2023-02-09T11:19:26.324Z,69.71
2023-02-09T11:25:03.304Z,68.73
2023-02-09T11:30:17.283Z,68.40
2023-02-09T11:35:26.651Z,67.26
2023-02-09T11:40:42.376Z,66.03
2023-02-09T11:45:45.718Z,67.94
2023-02-09T11:51:20.702Z,65.28
2023-02-09T11:56:27.327Z,65.40
2023-02-09T12:01:45.425Z,64.40
2023-02-09T12:06:54.971Z,65.09
2023-02-09T12:12:05.948Z,64.85
2023-02-09T12:17:18.965Z,63.16
2023-02-09T12:22:35.819Z,63.09
2023-02-09T12:27:41.207Z,62.89
2023-02-09T12:32:45.210Z,62.80
2023-02-09T12:38:15.822Z,62.03
2023-02-09T12:43:27.147Z,61.74
2023-02-09T12:48:28.873Z,61.28
2023-02-09T12:53:40.785Z,61.10
2023-02-09T12:58:45.272Z,62.05
2023-02-09T13:03:53.616Z,60.44
2023-02-09T13:08:59.622Z,60.28
2023-02-09T13:14:07.451Z,59.83
2023-02-09T13:19:24.888Z,60.37
2023-02-09T13:24:49.008Z,60.98
2023-02-09T13:29:56.773Z,59.39
2023-02-09T13:35:01.629Z,59.16
2023-02-09T13:40:16.588Z,59.54
2023-02-09T13:45:19.065Z,60.13
2023-02-09T13:50:23.436Z,59.67
2023-02-09T13:55:27.077Z,59.68
2023-02-09T14:00:45.225Z,59.98
2023-02-09T14:06:20.492Z,59.68
2023-02-09T14:11:41.181Z,59.60
2023-02-09T14:16:52.940Z,60.45
2023-02-09T14:21:55.189Z,59.87
2023-02-09T14:27:05.324Z,61.50
2023-02-09T14:32:32.919Z,61.30
2023-02-09T14:37:36.989Z,62.02
2023-02-09T14:42:57.813Z,61.21
2023-02-09T14:47:59.623Z,61.46
2023-02-09T14:53:07.888Z,61.03
2023-02-09T14:58:23.317Z,61.33
2023-02-09T15:03:25.117Z,61.77
2023-02-09T15:08:30.293Z,62.34
2023-02-09T15:13:33.073Z,62.96
2023-02-09T15:18:36.426Z,62.87
2023-02-09T15:23:38.012Z,64.09
2023-02-09T15:28:39.736Z,63.89
2023-02-09T15:33:41.465Z,64.15
2023-02-09T15:38:43.171Z,64.28
2023-02-09T15:44:03.584Z,64.36
2023-02-09T15:49:07.336Z,65.25
2023-02-09T15:54:17.983Z,65.88
2023-02-09T15:59:23.917Z,66.00
2023-02-09T16:04:25.540Z,66.39
2023-02-09T16:09:29.021Z,66.22
2023-02-09T16:14:31.682Z,66.86
2023-02-09T16:19:33.832Z,66.73
2023-02-09T16:24:45.423Z,66.92
2023-02-09T16:29:47.276Z,67.47
2023-02-09T16:34:49.765Z,67.59
2023-02-09T16:39:51.470Z,67.72
2023-02-09T16:44:53.594Z,68.07
2023-02-09T16:49:59.460Z,67.74
2023-02-09T16:55:05.762Z,68.18
2023-02-09T17:00:08.276Z,68.99
2023-02-09T17:05:17.243Z,68.43
2023-02-09T17:10:21.027Z,68.01
2023-02-09T17:15:30.642Z,68.18
2023-02-09T17:20:40.764Z,67.92
2023-02-09T17:25:42.566Z,68.46
2023-02-09T17:30:45.371Z,68.38
2023-02-09T17:36:22.570Z,67.81
2023-02-09T17:41:22.527Z,68.29
2023-02-09T17:46:24.401Z,67.44
2023-02-09T17:51:31.955Z,67.23
2023-02-09T17:56:33.739Z,66.97
2023-02-09T18:01:47.157Z,67.37
2023-02-09T18:06:49.565Z,67.65
2023-02-09T18:11:51.147Z,67.58
2023-02-09T18:16:55.087Z,67.56
2023-02-09T18:21:59.975Z,67.36
2023-02-09T18:27:02.105Z,67.30
2023-02-09T18:32:04.115Z,67.12
2023-02-09T18:37:05.983Z,66.99
2023-02-09T18:42:07.593Z,66.61
2023-02-09T18:47:10.800Z,66.78
2023-02-09T18:52:17.036Z,66.64
2023-02-09T18:57:19.126Z,67.25
2023-02-09T19:02:21.275Z,67.68
2023-02-09T19:07:23.155Z,67.40
2023-02-09T19:12:27.002Z,67.64
2023-02-09T19:17:29.885Z,68.31
2023-02-09T19:22:32.328Z,68.37
2023-02-09T19:27:33.983Z,68.58
2023-02-09T19:32:36.509Z,68.80
2023-02-09T19:37:39.977Z,69.38
2023-02-09T19:42:41.576Z,69.31
2023-02-09T19:47:43.453Z,69.03
2023-02-09T19:52:47.578Z,68.78
2023-02-09T19:57:49.299Z,68.35
2023-02-09T20:02:50.998Z,68.52
2023-02-09T20:07:54.453Z,67.82
2023-02-09T20:12:56.178Z,68.09
2023-02-09T20:17:58.124Z,67.54
2023-02-09T20:22:59.801Z,66.98
2023-02-09T20:28:01.500Z,67.37
2023-02-09T20:33:03.143Z,67.57
2023-02-09T20:38:04.749Z,67.45
2023-02-09T20:43:25.098Z,67.79
2023-02-09T20:48:26.789Z,67.71
2023-02-09T20:53:28.424Z,67.87
2023-02-09T20:58:30.288Z,68.25
2023-02-09T21:03:31.872Z,68.16
2023-02-09T21:08:35.848Z,68.27
2023-02-09T21:13:41.025Z,68.39
2023-02-09T21:18:44.389Z,68.35
2023-02-09T21:23:46.577Z,68.09
2023-02-09T21:28:48.627Z,68.49
2023-02-09T21:33:50.283Z,68.16
2023-02-09T21:38:52.018Z,68.30
2023-02-09T21:43:53.632Z,68.50
2023-02-09T21:48:55.705Z,68.60
2023-02-09T21:53:57.419Z,69.04
2023-02-09T21:58:59.441Z,69.04
2023-02-09T22:04:01.337Z,69.36
2023-02-09T22:09:06.143Z,70.38
2023-02-09T22:14:08.305Z,70.96
2023-02-09T22:19:10.205Z,70.81
2023-02-09T22:24:13.888Z,70.50
2023-02-09T22:29:16.834Z,71.39
2023-02-09T22:34:18.748Z,71.41
2023-02-09T22:39:21.456Z,71.30
2023-02-09T22:44:24.935Z,72.64
2023-02-09T22:49:28.315Z,72.58
2023-02-09T22:54:30.007Z,73.61
2023-02-09T22:59:31.772Z,73.54
2023-02-09T23:04:33.434Z,73.46
2023-02-09T23:09:35.546Z,73.42
2023-02-09T23:14:37.211Z,73.30
2023-02-09T23:19:40.251Z,73.98
2023-02-09T23:24:42.739Z,74.25
2023-02-09T23:29:44.329Z,73.61
2023-02-09T23:34:45.945Z,73.80
2023-02-09T23:39:47.587Z,73.59
2023-02-09T23:44:49.219Z,73.90
2023-02-09T23:49:50.912Z,73.77
2023-02-09T23:54:52.760Z,74.48
2023-02-09T23:59:54.513Z,74.36
